sensor_id;sensor_type;location;lat;lon;timestamp;P1;durP1;ratioP1;P2;durP2;ratioP2
16430;SDS011;8325;49.284;7.238;2023-04-03T04:04:21;4.30;;;2.97;;
16430;SDS011;8325;49.284;7.238;2023-04-03T04:08:33;4.40;;;3.07;;
16430;SDS011;8325;49.284;7.238;2023-04-03T04:12:45;5.53;;;3.33;;
16430;SDS011;8325;49.284;7.238;2023-04-03T04:16:57;7.03;;;3.20;;
16430;SDS011;8325;49.284;7.238;2023-04-03T04:21:11;5.03;;;3.80;;
16430;SDS011;8325;49.284;7.238;2023-04-03T04:25:24;5.90;;;3.97;;
16430;SDS011;8325;49.284;7.238;2023-04-03T04:29:35;4.70;;;3.40;;
16430;SDS011;8325;49.284;7.238;2023-04-03T04:33:50;4.10;;;3.20;;
16430;SDS011;8325;49.284;7.238;2023-04-03T04:38:03;6.47;;;3.20;;
16430;SDS011;8325;49.284;7.238;2023-04-03T04:42:16;3.93;;;3.13;;
16430;SDS011;8325;49.284;7.238;2023-04-03T04:46:30;4.37;;;3.50;;
16430;SDS011;8325;49.284;7.238;2023-04-03T04:50:43;4.23;;;3.23;;
16430;SDS011;8325;49.284;7.238;2023-04-03T04:54:55;6.13;;;3.03;;
16430;SDS011;8325;49.284;7.238;2023-04-03T04:59:07;5.57;;;3.43;;
16430;SDS011;8325;49.284;7.238;2023-04-03T05:03:19;3.73;;;3.17;;
16430;SDS011;8325;49.284;7.238;2023-04-03T05:07:31;3.10;;;2.80;;
16430;SDS011;8325;49.284;7.238;2023-04-03T05:11:43;2.50;;;2.30;;
16430;SDS011;8325;49.284;7.238;2023-04-03T05:15:57;4.63;;;3.80;;
16430;SDS011;8325;49.284;7.238;2023-04-03T05:20:10;4.07;;;3.30;;
16430;SDS011;8325;49.284;7.238;2023-04-03T05:24:22;6.07;;;3.70;;
16430;SDS011;8325;49.284;7.238;2023-04-03T05:28:34;7.53;;;4.23;;
16430;SDS011;8325;49.284;7.238;2023-04-03T05:32:45;7.33;;;4.47;;
16430;SDS011;8325;49.284;7.238;2023-04-03T05:37:14;6.17;;;3.77;;
16430;SDS011;8325;49.284;7.238;2023-04-03T05:41:26;6.80;;;4.70;;
16430;SDS011;8325;49.284;7.238;2023-04-03T05:45:37;3.10;;;2.33;;
16430;SDS011;8325;49.284;7.238;2023-04-03T05:49:49;3.73;;;2.93;;
16430;SDS011;8325;49.284;7.238;2023-04-03T05:58:52;2.57;;;2.07;;
16430;SDS011;8325;49.284;7.238;2023-04-03T06:03:04;4.30;;;2.27;;
16430;SDS011;8325;49.284;7.238;2023-04-03T06:07:17;3.77;;;2.53;;
16430;SDS011;8325;49.284;7.238;2023-04-03T06:11:33;4.70;;;2.27;;
16430;SDS011;8325;49.284;7.238;2023-04-03T06:15:44;4.23;;;2.20;;
16430;SDS011;8325;49.284;7.238;2023-04-03T06:19:56;2.33;;;2.10;;
16430;SDS011;8325;49.284;7.238;2023-04-03T06:24:11;2.37;;;1.77;;
16430;SDS011;8325;49.284;7.238;2023-04-03T06:28:25;2.60;;;1.90;;
16430;SDS011;8325;49.284;7.238;2023-04-03T06:32:37;2.50;;;2.30;;
16430;SDS011;8325;49.284;7.238;2023-04-03T06:36:49;3.90;;;2.10;;
16430;SDS011;8325;49.284;7.238;2023-04-03T06:41:01;2.67;;;2.20;;
16430;SDS011;8325;49.284;7.238;2023-04-03T06:45:13;3.10;;;2.03;;
16430;SDS011;8325;49.284;7.238;2023-04-03T06:49:25;3.30;;;2.00;;
16430;SDS011;8325;49.284;7.238;2023-04-03T06:53:37;3.25;;;2.20;;
16430;SDS011;8325;49.284;7.238;2023-04-03T06:57:49;3.17;;;2.10;;
16430;SDS011;8325;49.284;7.238;2023-04-03T07:02:01;2.65;;;2.30;;
16430;SDS011;8325;49.284;7.238;2023-04-03T07:06:13;4.78;;;2.30;;
16430;SDS011;8325;49.284;7.238;2023-04-03T07:10:26;4.53;;;2.72;;
16430;SDS011;8325;49.284;7.238;2023-04-03T07:14:38;3.00;;;2.50;;
16430;SDS011;8325;49.284;7.238;2023-04-03T07:18:49;4.55;;;2.35;;
16430;SDS011;8325;49.284;7.238;2023-04-03T07:23:02;2.88;;;2.05;;
16430;SDS011;8325;49.284;7.238;2023-04-03T07:27:14;4.20;;;2.40;;
16430;SDS011;8325;49.284;7.238;2023-04-03T07:31:26;3.00;;;1.90;;
16430;SDS011;8325;49.284;7.238;2023-04-03T07:35:37;3.47;;;2.20;;
16430;SDS011;8325;49.284;7.238;2023-04-03T07:39:49;3.75;;;1.90;;
16430;SDS011;8325;49.284;7.238;2023-04-03T07:44:02;4.55;;;1.90;;
16430;SDS011;8325;49.284;7.238;2023-04-03T07:48:13;5.15;;;2.22;;
16430;SDS011;8325;49.284;7.238;2023-04-03T07:52:25;2.63;;;1.90;;
16430;SDS011;8325;49.284;7.238;2023-04-03T07:56:37;3.85;;;2.05;;
16430;SDS011;8325;49.284;7.238;2023-04-03T08:00:48;5.82;;;2.30;;
16430;SDS011;8325;49.284;7.238;2023-04-03T08:05:00;3.90;;;2.40;;
16430;SDS011;8325;49.284;7.238;2023-04-03T08:09:12;4.03;;;1.90;;
16430;SDS011;8325;49.284;7.238;2023-04-03T08:13:27;5.47;;;2.35;;
16430;SDS011;8325;49.284;7.238;2023-04-03T08:17:39;2.90;;;2.35;;
16430;SDS011;8325;49.284;7.238;2023-04-03T08:21:50;5.28;;;2.30;;
16430;SDS011;8325;49.284;7.238;2023-04-03T08:26:09;4.70;;;2.17;;
16430;SDS011;8325;49.284;7.238;2023-04-03T08:30:22;3.80;;;2.17;;
16430;SDS011;8325;49.284;7.238;2023-04-03T08:34:33;3.72;;;1.98;;
16430;SDS011;8325;49.284;7.238;2023-04-03T08:38:46;2.22;;;1.67;;
16430;SDS011;8325;49.284;7.238;2023-04-03T08:43:02;2.20;;;1.60;;
16430;SDS011;8325;49.284;7.238;2023-04-03T08:47:27;3.30;;;1.83;;
16430;SDS011;8325;49.284;7.238;2023-04-03T08:51:48;2.65;;;1.50;;
16430;SDS011;8325;49.284;7.238;2023-04-03T08:56:05;2.40;;;1.42;;
16430;SDS011;8325;49.284;7.238;2023-04-03T09:00:20;3.53;;;1.63;;
16430;SDS011;8325;49.284;7.238;2023-04-03T09:04:35;3.13;;;1.50;;
16430;SDS011;8325;49.284;7.238;2023-04-03T09:18:13;3.53;;;1.55;;
16430;SDS011;8325;49.284;7.238;2023-04-03T09:22:31;2.72;;;1.73;;
16430;SDS011;8325;49.284;7.238;2023-04-03T09:26:56;2.80;;;1.60;;
16430;SDS011;8325;49.284;7.238;2023-04-03T09:31:21;3.35;;;1.85;;
16430;SDS011;8325;49.284;7.238;2023-04-03T09:35:36;1.65;;;1.48;;
16430;SDS011;8325;49.284;7.238;2023-04-03T09:39:59;2.22;;;1.67;;
16430;SDS011;8325;49.284;7.238;2023-04-03T09:44:20;1.17;;;1.08;;
16430;SDS011;8325;49.284;7.238;2023-04-03T09:48:41;1.70;;;1.50;;
16430;SDS011;8325;49.284;7.238;2023-04-03T09:53:24;3.83;;;1.40;;
16430;SDS011;8325;49.284;7.238;2023-04-03T09:57:39;2.83;;;1.50;;
16430;SDS011;8325;49.284;7.238;2023-04-03T10:02:16;1.58;;;1.40;;
16430;SDS011;8325;49.284;7.238;2023-04-03T10:06:34;2.17;;;1.45;;
16430;SDS011;8325;49.284;7.238;2023-04-03T10:11:04;1.80;;;1.65;;
16430;SDS011;8325;49.284;7.238;2023-04-03T10:15:23;2.42;;;1.70;;
16430;SDS011;8325;49.284;7.238;2023-04-03T10:24:01;2.03;;;1.80;;
16430;SDS011;8325;49.284;7.238;2023-04-03T10:28:39;3.05;;;1.65;;
16430;SDS011;8325;49.284;7.238;2023-04-03T10:33:11;2.00;;;1.58;;
16430;SDS011;8325;49.284;7.238;2023-04-03T10:37:37;1.83;;;1.60;;
16430;SDS011;8325;49.284;7.238;2023-04-03T11:00:04;2.67;;;1.48;;
16430;SDS011;8325;49.284;7.238;2023-04-03T11:04:20;4.05;;;1.83;;
16430;SDS011;8325;49.284;7.238;2023-04-03T11:08:36;3.38;;;2.10;;
16430;SDS011;8325;49.284;7.238;2023-04-03T11:12:59;2.58;;;1.92;;
16430;SDS011;8325;49.284;7.238;2023-04-03T11:21:48;3.13;;;1.92;;
16430;SDS011;8325;49.284;7.238;2023-04-03T11:26:12;2.30;;;2.10;;
16430;SDS011;8325;49.284;7.238;2023-04-03T11:35:14;2.90;;;1.70;;
16430;SDS011;8325;49.284;7.238;2023-04-03T11:39:31;2.15;;;1.67;;
16430;SDS011;8325;49.284;7.238;2023-04-03T11:43:55;3.63;;;2.20;;
16430;SDS011;8325;49.284;7.238;2023-04-03T11:56:55;3.03;;;1.55;;
16430;SDS011;8325;49.284;7.238;2023-04-03T12:01:07;3.28;;;1.77;;
16430;SDS011;8325;49.284;7.238;2023-04-03T12:05:25;2.90;;;1.38;;
16430;SDS011;8325;49.284;7.238;2023-04-03T12:27:59;2.55;;;1.38;;
16430;SDS011;8325;49.284;7.238;2023-04-03T12:36:50;2.03;;;1.25;;
16430;SDS011;8325;49.284;7.238;2023-04-03T12:50:30;1.75;;;1.40;;
16430;SDS011;8325;49.284;7.238;2023-04-03T12:54:44;2.67;;;1.70;;
16430;SDS011;8325;49.284;7.238;2023-04-03T12:59:18;4.13;;;1.55;;
16430;SDS011;8325;49.284;7.238;2023-04-03T13:03:34;3.40;;;1.70;;
16430;SDS011;8325;49.284;7.238;2023-04-03T13:08:10;2.47;;;1.50;;
16430;SDS011;8325;49.284;7.238;2023-04-03T13:12:26;2.42;;;1.65;;
16430;SDS011;8325;49.284;7.238;2023-04-03T13:16:37;2.28;;;1.55;;
16430;SDS011;8325;49.284;7.238;2023-04-03T13:20:52;1.80;;;1.50;;
16430;SDS011;8325;49.284;7.238;2023-04-03T13:25:10;3.83;;;1.67;;
16430;SDS011;8325;49.284;7.238;2023-04-03T13:29:30;2.58;;;1.40;;
16430;SDS011;8325;49.284;7.238;2023-04-03T13:42:31;3.22;;;1.77;;
16430;SDS011;8325;49.284;7.238;2023-04-03T13:46:45;2.58;;;1.73;;
16430;SDS011;8325;49.284;7.238;2023-04-03T13:51:01;3.75;;;2.13;;
16430;SDS011;8325;49.284;7.238;2023-04-03T13:59:37;1.70;;;1.60;;
16430;SDS011;8325;49.284;7.238;2023-04-03T14:03:56;2.30;;;1.88;;
16430;SDS011;8325;49.284;7.238;2023-04-03T14:08:09;3.80;;;1.75;;
16430;SDS011;8325;49.284;7.238;2023-04-03T14:12:24;1.63;;;1.50;;
16430;SDS011;8325;49.284;7.238;2023-04-03T14:16:44;1.92;;;1.50;;
16430;SDS011;8325;49.284;7.238;2023-04-03T14:20:57;2.90;;;1.58;;
16430;SDS011;8325;49.284;7.238;2023-04-03T14:25:09;3.30;;;2.00;;
16430;SDS011;8325;49.284;7.238;2023-04-03T14:29:21;3.15;;;1.65;;
16430;SDS011;8325;49.284;7.238;2023-04-03T14:33:33;1.48;;;1.38;;
16430;SDS011;8325;49.284;7.238;2023-04-03T14:37:47;3.60;;;1.67;;
16430;SDS011;8325;49.284;7.238;2023-04-03T14:41:58;2.70;;;1.58;;
16430;SDS011;8325;49.284;7.238;2023-04-03T14:46:14;3.25;;;1.95;;
16430;SDS011;8325;49.284;7.238;2023-04-03T14:50:27;3.60;;;2.35;;
16430;SDS011;8325;49.284;7.238;2023-04-03T14:54:39;3.03;;;1.48;;
16430;SDS011;8325;49.284;7.238;2023-04-03T14:58:52;1.83;;;1.45;;
16430;SDS011;8325;49.284;7.238;2023-04-03T15:03:11;2.08;;;1.73;;
16430;SDS011;8325;49.284;7.238;2023-04-03T15:07:26;2.97;;;1.55;;
16430;SDS011;8325;49.284;7.238;2023-04-03T15:11:39;3.22;;;1.77;;
16430;SDS011;8325;49.284;7.238;2023-04-03T15:15:51;2.75;;;1.60;;
16430;SDS011;8325;49.284;7.238;2023-04-03T15:20:03;2.13;;;1.60;;
16430;SDS011;8325;49.284;7.238;2023-04-03T15:24:22;1.60;;;1.33;;
16430;SDS011;8325;49.284;7.238;2023-04-03T15:28:35;3.72;;;2.08;;
16430;SDS011;8325;49.284;7.238;2023-04-03T15:32:49;2.17;;;1.42;;
16430;SDS011;8325;49.284;7.238;2023-04-03T15:37:01;2.08;;;1.60;;
16430;SDS011;8325;49.284;7.238;2023-04-03T15:41:12;2.50;;;1.63;;
16430;SDS011;8325;49.284;7.238;2023-04-03T15:45:24;1.83;;;1.30;;
16430;SDS011;8325;49.284;7.238;2023-04-03T15:49:36;2.70;;;1.45;;
16430;SDS011;8325;49.284;7.238;2023-04-03T15:53:48;3.65;;;1.50;;
16430;SDS011;8325;49.284;7.238;2023-04-03T15:57:59;1.50;;;1.30;;
16430;SDS011;8325;49.284;7.238;2023-04-03T16:02:11;4.80;;;1.58;;
16430;SDS011;8325;49.284;7.238;2023-04-03T16:06:24;2.95;;;1.50;;
16430;SDS011;8325;49.284;7.238;2023-04-03T16:10:37;2.08;;;1.55;;
16430;SDS011;8325;49.284;7.238;2023-04-03T16:14:49;2.92;;;1.33;;
16430;SDS011;8325;49.284;7.238;2023-04-03T16:19:01;3.28;;;1.60;;
16430;SDS011;8325;49.284;7.238;2023-04-03T16:23:13;2.70;;;1.60;;
16430;SDS011;8325;49.284;7.238;2023-04-03T16:27:25;3.58;;;1.60;;
16430;SDS011;8325;49.284;7.238;2023-04-03T16:31:41;2.42;;;1.52;;
16430;SDS011;8325;49.284;7.238;2023-04-03T16:35:53;1.88;;;1.33;;
16430;SDS011;8325;49.284;7.238;2023-04-03T16:40:05;3.42;;;1.88;;
16430;SDS011;8325;49.284;7.238;2023-04-03T16:44:18;1.50;;;1.30;;
16430;SDS011;8325;49.284;7.238;2023-04-03T16:48:30;2.55;;;1.80;;
16430;SDS011;8325;49.284;7.238;2023-04-03T16:52:42;5.70;;;1.95;;
16430;SDS011;8325;49.284;7.238;2023-04-03T16:56:53;3.45;;;1.52;;
16430;SDS011;8325;49.284;7.238;2023-04-03T17:01:09;1.55;;;1.30;;
16430;SDS011;8325;49.284;7.238;2023-04-03T17:05:21;2.22;;;1.65;;
16430;SDS011;8325;49.284;7.238;2023-04-03T17:09:33;2.38;;;1.80;;
16430;SDS011;8325;49.284;7.238;2023-04-03T17:13:45;1.75;;;1.60;;
16430;SDS011;8325;49.284;7.238;2023-04-03T17:17:56;3.80;;;2.17;;
16430;SDS011;8325;49.284;7.238;2023-04-03T17:22:08;2.33;;;1.60;;
16430;SDS011;8325;49.284;7.238;2023-04-03T17:26:20;2.83;;;1.80;;
16430;SDS011;8325;49.284;7.238;2023-04-03T17:30:32;4.13;;;2.00;;
16430;SDS011;8325;49.284;7.238;2023-04-03T17:34:45;2.95;;;2.40;;
16430;SDS011;8325;49.284;7.238;2023-04-03T17:38:57;3.80;;;2.40;;
16430;SDS011;8325;49.284;7.238;2023-04-03T17:43:10;3.75;;;2.10;;
16430;SDS011;8325;49.284;7.238;2023-04-03T17:47:22;2.53;;;2.03;;
16430;SDS011;8325;49.284;7.238;2023-04-03T17:51:34;3.03;;;2.38;;
16430;SDS011;8325;49.284;7.238;2023-04-03T17:55:45;3.08;;;2.00;;
16430;SDS011;8325;49.284;7.238;2023-04-03T17:59:57;2.40;;;1.92;;
16430;SDS011;8325;49.284;7.238;2023-04-03T18:04:08;2.63;;;2.40;;
16430;SDS011;8325;49.284;7.238;2023-04-03T18:08:20;2.58;;;2.20;;
16430;SDS011;8325;49.284;7.238;2023-04-03T18:12:31;5.30;;;2.63;;
16430;SDS011;8325;49.284;7.238;2023-04-03T18:16:43;4.65;;;2.28;;
16430;SDS011;8325;49.284;7.238;2023-04-03T18:20:55;3.03;;;2.25;;
16430;SDS011;8325;49.284;7.238;2023-04-03T18:25:06;3.10;;;2.17;;
16430;SDS011;8325;49.284;7.238;2023-04-03T18:29:18;5.28;;;2.83;;
16430;SDS011;8325;49.284;7.238;2023-04-03T18:33:31;2.33;;;2.13;;
16430;SDS011;8325;49.284;7.238;2023-04-03T18:37:43;5.82;;;2.90;;
16430;SDS011;8325;49.284;7.238;2023-04-03T18:41:55;4.15;;;2.60;;
16430;SDS011;8325;49.284;7.238;2023-04-03T18:46:10;2.40;;;2.10;;
16430;SDS011;8325;49.284;7.238;2023-04-03T18:50:22;5.15;;;2.53;;
16430;SDS011;8325;49.284;7.238;2023-04-03T18:54:34;3.75;;;2.53;;
16430;SDS011;8325;49.284;7.238;2023-04-03T18:58:47;3.47;;;2.65;;
16430;SDS011;8325;49.284;7.238;2023-04-03T19:02:59;3.28;;;2.20;;
16430;SDS011;8325;49.284;7.238;2023-04-03T19:07:10;2.75;;;2.08;;
16430;SDS011;8325;49.284;7.238;2023-04-03T19:11:22;3.38;;;2.17;;
16430;SDS011;8325;49.284;7.238;2023-04-03T19:15:33;4.45;;;2.30;;
16430;SDS011;8325;49.284;7.238;2023-04-03T19:19:45;2.83;;;2.00;;
16430;SDS011;8325;49.284;7.238;2023-04-03T19:23:57;4.20;;;2.67;;
16430;SDS011;8325;49.284;7.238;2023-04-03T19:28:09;3.17;;;1.70;;
16430;SDS011;8325;49.284;7.238;2023-04-03T19:32:21;4.27;;;1.90;;
16430;SDS011;8325;49.284;7.238;2023-04-03T19:36:33;4.80;;;2.53;;
16430;SDS011;8325;49.284;7.238;2023-04-03T19:40:46;2.40;;;1.90;;
16430;SDS011;8325;49.284;7.238;2023-04-03T19:44:57;3.10;;;1.80;;
16430;SDS011;8325;49.284;7.238;2023-04-03T19:49:09;2.73;;;1.67;;
16430;SDS011;8325;49.284;7.238;2023-04-03T19:53:21;3.92;;;1.98;;
16430;SDS011;8325;49.284;7.238;2023-04-03T19:57:34;4.40;;;2.40;;
16430;SDS011;8325;49.284;7.238;2023-04-03T20:01:46;3.23;;;2.03;;
16430;SDS011;8325;49.284;7.238;2023-04-03T20:05:57;4.07;;;1.93;;
16430;SDS011;8325;49.284;7.238;2023-04-03T20:10:09;3.17;;;1.93;;
16430;SDS011;8325;49.284;7.238;2023-04-03T20:14:22;4.13;;;2.00;;
16430;SDS011;8325;49.284;7.238;2023-04-03T20:18:33;2.70;;;2.07;;
16430;SDS011;8325;49.284;7.238;2023-04-03T20:22:45;4.27;;;2.37;;
16430;SDS011;8325;49.284;7.238;2023-04-03T20:26:57;5.80;;;3.80;;
16430;SDS011;8325;49.284;7.238;2023-04-03T20:31:08;3.83;;;2.93;;
16430;SDS011;8325;49.284;7.238;2023-04-03T20:35:22;2.30;;;2.00;;
16430;SDS011;8325;49.284;7.238;2023-04-03T20:39:35;5.50;;;2.73;;
16430;SDS011;8325;49.284;7.238;2023-04-03T20:43:47;4.17;;;2.43;;
16430;SDS011;8325;49.284;7.238;2023-04-03T20:47:59;4.03;;;2.10;;
16430;SDS011;8325;49.284;7.238;2023-04-03T20:52:11;3.67;;;1.90;;
16430;SDS011;8325;49.284;7.238;2023-04-03T20:56:22;5.53;;;2.60;;
16430;SDS011;8325;49.284;7.238;2023-04-03T21:00:34;6.63;;;3.20;;
16430;SDS011;8325;49.284;7.238;2023-04-03T21:04:52;5.60;;;2.73;;
16430;SDS011;8325;49.284;7.238;2023-04-03T21:23:01;2.60;;;1.83;;
16430;SDS011;8325;49.284;7.238;2023-04-03T21:27:12;4.00;;;1.90;;
